createdAt,value
2023-05-13T00:00:26.986Z,99.90
2023-05-13T00:02:54.928Z,99.90
2023-05-13T00:05:22.720Z,99.90
2023-05-13T00:07:51.810Z,99.90
2023-05-13T00:10:20.519Z,99.90
2023-05-13T00:12:48.624Z,99.90
2023-05-13T00:15:16.462Z,99.90
2023-05-13T00:17:44.337Z,99.90
2023-05-13T00:20:12.600Z,99.90
2023-05-13T00:22:40.349Z,99.90
2023-05-13T00:25:10.925Z,99.90
2023-05-13T00:27:38.868Z,99.90
2023-05-13T00:30:08.358Z,99.90
2023-05-13T00:32:36.408Z,99.90
2023-05-13T00:35:04.379Z,99.90
2023-05-13T00:37:32.146Z,99.90
2023-05-13T00:39:59.888Z,99.90
2023-05-13T00:42:29.084Z,99.90
2023-05-13T00:44:56.786Z,99.90
2023-05-13T00:47:24.533Z,99.90
2023-05-13T00:49:53.198Z,99.90
2023-05-13T00:52:21.142Z,99.90
2023-05-13T00:54:48.835Z,99.90
2023-05-13T00:57:16.645Z,99.90
2023-05-13T00:59:45.777Z,99.90
2023-05-13T01:02:20.327Z,99.90
2023-05-13T01:05:04.208Z,99.90
2023-05-13T01:07:40.096Z,99.90
2023-05-13T01:10:16.563Z,99.90
2023-05-13T01:12:47.359Z,99.90
2023-05-13T01:15:21.479Z,99.90
2023-05-13T01:17:58.449Z,99.90
2023-05-13T01:20:29.200Z,99.90
2023-05-13T01:22:58.453Z,99.90
2023-05-13T01:25:26.551Z,99.90
2023-05-13T01:27:54.781Z,99.90
2023-05-13T01:30:23.875Z,99.90
2023-05-13T01:32:53.485Z,99.90
2023-05-13T01:35:22.450Z,99.90
2023-05-13T01:37:51.340Z,99.90
2023-05-13T01:40:31.868Z,99.90
2023-05-13T01:43:00.613Z,99.90
2023-05-13T01:45:29.943Z,99.90
2023-05-13T01:47:57.813Z,99.90
2023-05-13T01:50:26.294Z,99.90
2023-05-13T01:52:54.120Z,99.90
2023-05-13T01:55:23.294Z,99.90
2023-05-13T01:57:51.137Z,99.90
2023-05-13T02:00:19.792Z,99.90
2023-05-13T02:02:47.930Z,99.90
2023-05-13T02:05:22.750Z,99.90
2023-05-13T02:07:50.607Z,99.90
2023-05-13T02:10:18.598Z,99.90
2023-05-13T02:12:47.922Z,99.90
2023-05-13T02:15:15.794Z,99.90
2023-05-13T02:17:43.649Z,99.90
2023-05-13T02:20:12.608Z,99.90
2023-05-13T02:22:40.366Z,99.90
2023-05-13T02:25:09.448Z,99.90
2023-05-13T02:27:37.212Z,99.90
2023-05-13T02:30:07.891Z,99.90
2023-05-13T02:32:35.767Z,99.90
2023-05-13T02:35:03.526Z,99.90
2023-05-13T02:37:31.562Z,99.90
2023-05-13T02:39:59.510Z,99.90
2023-05-13T02:42:27.294Z,99.90
2023-05-13T02:44:55.061Z,99.90
2023-05-13T02:47:24.203Z,99.90
2023-05-13T02:49:52.050Z,99.90
2023-05-13T02:52:19.870Z,99.90
2023-05-13T02:54:47.722Z,99.90
2023-05-13T02:57:15.579Z,99.90
2023-05-13T02:59:43.310Z,99.90
2023-05-13T03:02:11.114Z,99.90
2023-05-13T03:04:41.212Z,99.90
2023-05-13T03:07:08.996Z,99.90
2023-05-13T03:09:39.207Z,99.90
2023-05-13T03:12:07.961Z,99.90
2023-05-13T03:14:37.103Z,99.90
2023-05-13T03:17:05.000Z,99.90
2023-05-13T03:19:32.877Z,99.90
2023-05-13T03:22:02.003Z,99.90
2023-05-13T03:24:30.132Z,99.90
2023-05-13T03:26:58.121Z,99.90
2023-05-13T03:29:26.059Z,99.90
2023-05-13T03:31:54.517Z,99.90
2023-05-13T03:34:22.309Z,99.90
2023-05-13T03:36:50.115Z,99.90
2023-05-13T03:39:19.235Z,99.90
2023-05-13T03:41:47.123Z,99.90
2023-05-13T03:44:14.970Z,99.90
2023-05-13T03:46:43.496Z,99.90
2023-05-13T03:49:11.465Z,99.90
2023-05-13T03:51:39.345Z,99.90
2023-05-13T03:54:07.501Z,99.90
2023-05-13T03:56:36.655Z,99.90
2023-05-13T03:59:04.438Z,99.90
2023-05-13T04:01:32.242Z,99.90
2023-05-13T04:04:00.074Z,99.90
2023-05-13T04:06:28.129Z,99.90
2023-05-13T04:08:55.863Z,99.90
2023-05-13T04:11:23.643Z,99.90
2023-05-13T04:13:52.778Z,99.90
2023-05-13T04:16:21.317Z,99.90
2023-05-13T04:18:49.192Z,99.90
2023-05-13T04:21:16.948Z,99.90
2023-05-13T04:23:44.698Z,99.90
2023-05-13T04:26:12.533Z,99.90
2023-05-13T04:28:40.361Z,99.90
2023-05-13T04:31:09.659Z,99.90
2023-05-13T04:33:37.413Z,99.90
2023-05-13T04:36:05.868Z,99.90
2023-05-13T04:38:33.701Z,99.90
2023-05-13T04:41:01.431Z,99.90
2023-05-13T04:43:29.280Z,99.90
2023-05-13T04:45:57.115Z,99.90
2023-05-13T04:48:27.986Z,99.90
2023-05-13T04:50:56.582Z,99.90
2023-05-13T04:53:24.916Z,99.90
2023-05-13T04:55:57.212Z,99.90
2023-05-13T04:58:24.977Z,99.90
2023-05-13T05:00:52.756Z,99.90
2023-05-13T05:03:20.845Z,99.90
2023-05-13T05:05:50.069Z,99.90
2023-05-13T05:08:17.999Z,99.90
2023-05-13T05:10:45.786Z,99.90
2023-05-13T05:13:13.662Z,99.90
2023-05-13T05:15:41.739Z,99.90
2023-05-13T05:18:10.211Z,99.90
2023-05-13T05:20:39.166Z,99.90
2023-05-13T05:23:10.500Z,99.90
2023-05-13T05:25:38.436Z,99.90
2023-05-13T05:28:06.440Z,99.90
2023-05-13T05:30:39.592Z,99.90
2023-05-13T05:33:08.150Z,99.90
2023-05-13T05:35:37.321Z,99.90
2023-05-13T05:38:05.670Z,99.90
2023-05-13T05:40:36.900Z,99.90
2023-05-13T05:43:04.728Z,99.90
2023-05-13T05:45:32.829Z,99.90
2023-05-13T05:48:00.592Z,99.90
2023-05-13T05:50:28.988Z,99.90
2023-05-13T05:52:57.257Z,99.90
2023-05-13T05:55:25.154Z,99.90
2023-05-13T05:57:54.431Z,99.90
2023-05-13T06:00:22.669Z,99.90
2023-05-13T06:02:51.057Z,99.90
2023-05-13T06:05:19.004Z,99.90
2023-05-13T06:07:46.858Z,99.90
2023-05-13T06:10:14.641Z,99.90
2023-05-13T06:12:42.418Z,99.90
2023-05-13T06:15:12.426Z,99.90
2023-05-13T06:17:40.780Z,99.90
2023-05-13T06:20:09.170Z,99.90
2023-05-13T06:22:36.980Z,99.90
2023-05-13T06:25:05.491Z,99.90
2023-05-13T06:27:34.018Z,99.90
2023-05-13T06:30:01.795Z,99.90
2023-05-13T06:32:30.995Z,99.90
2023-05-13T06:34:58.909Z,99.90
2023-05-13T06:37:26.910Z,99.90
2023-05-13T06:39:54.666Z,99.90
2023-05-13T06:42:22.490Z,99.90
2023-05-13T06:44:50.320Z,99.90
2023-05-13T06:47:18.289Z,99.90
2023-05-13T06:49:47.571Z,99.90
2023-05-13T06:52:15.461Z,99.90
2023-05-13T06:54:43.232Z,99.90
2023-05-13T06:57:10.966Z,99.90
2023-05-13T06:59:38.736Z,99.90
2023-05-13T07:02:09.657Z,99.90
2023-05-13T07:04:37.734Z,99.90
2023-05-13T07:07:06.855Z,99.90
2023-05-13T07:09:34.649Z,99.90
2023-05-13T07:12:02.519Z,99.90
2023-05-13T07:14:30.571Z,99.90
2023-05-13T07:16:58.776Z,99.90
2023-05-13T07:19:26.642Z,99.90
2023-05-13T07:21:54.504Z,99.90
2023-05-13T07:24:23.858Z,99.90
2023-05-13T07:26:51.744Z,99.90
2023-05-13T07:29:19.626Z,99.90
2023-05-13T07:31:47.502Z,99.90
2023-05-13T07:34:15.334Z,99.90
2023-05-13T07:36:43.081Z,99.90
2023-05-13T07:39:10.885Z,99.90
2023-05-13T07:41:40.049Z,99.90
2023-05-13T07:44:11.840Z,99.90
2023-05-13T07:46:39.745Z,99.90
2023-05-13T07:49:08.872Z,99.90
2023-05-13T07:51:37.630Z,99.90
2023-05-13T07:54:05.439Z,99.90
2023-05-13T07:56:33.690Z,99.90
2023-05-13T07:59:02.912Z,99.90
2023-05-13T08:01:30.857Z,99.90
2023-05-13T08:03:58.939Z,99.90
2023-05-13T08:06:27.022Z,99.90
2023-05-13T08:08:54.875Z,99.90
2023-05-13T08:11:22.703Z,99.90
2023-05-13T08:13:50.632Z,99.90
2023-05-13T08:16:19.865Z,99.90
2023-05-13T08:18:47.793Z,99.90
2023-05-13T08:21:15.693Z,99.90
2023-05-13T08:23:45.980Z,99.90
2023-05-13T08:26:14.201Z,99.90
2023-05-13T08:28:42.673Z,99.90
2023-05-13T08:31:12.603Z,98.20
2023-05-13T08:33:42.863Z,96.00
2023-05-13T08:36:11.337Z,94.00
2023-05-13T08:38:39.168Z,90.20
2023-05-13T08:41:07.873Z,86.90
2023-05-13T08:43:38.083Z,77.80
2023-05-13T08:46:10.035Z,67.60
2023-05-13T08:48:38.411Z,60.10
2023-05-13T08:51:08.062Z,56.00
2023-05-13T08:53:48.800Z,53.50
2023-05-13T08:56:16.711Z,49.80
2023-05-13T08:58:44.587Z,48.70
2023-05-13T09:01:12.663Z,47.30
2023-05-13T09:03:53.279Z,44.40
2023-05-13T09:06:22.444Z,43.50
2023-05-13T09:08:50.330Z,45.10
2023-05-13T09:11:18.322Z,42.20
2023-05-13T09:13:46.050Z,41.10
2023-05-13T09:16:14.754Z,40.20
2023-05-13T09:18:43.317Z,40.50
2023-05-13T09:21:25.896Z,39.90
2023-05-13T09:24:03.374Z,37.60
2023-05-13T09:26:31.472Z,38.00
2023-05-13T09:29:19.339Z,36.10
2023-05-13T09:31:49.887Z,37.50
2023-05-13T09:34:30.041Z,38.00
2023-05-13T09:37:02.319Z,36.30
2023-05-13T09:39:32.998Z,36.40
2023-05-13T09:42:04.880Z,35.80
2023-05-13T09:44:33.546Z,35.40
2023-05-13T09:47:02.377Z,35.20
2023-05-13T09:49:32.317Z,34.40
2023-05-13T09:52:01.414Z,34.00
2023-05-13T09:54:35.441Z,32.10
2023-05-13T09:57:03.992Z,32.40
2023-05-13T09:59:33.220Z,33.30
2023-05-13T10:02:05.131Z,34.00
2023-05-13T10:04:33.391Z,32.70
2023-05-13T10:07:05.285Z,31.50
2023-05-13T10:09:36.748Z,31.40
2023-05-13T10:12:07.837Z,32.70
2023-05-13T10:14:36.876Z,31.40
2023-05-13T10:19:34.004Z,31.00
2023-05-13T10:22:03.927Z,31.10
2023-05-13T10:24:32.563Z,31.70
2023-05-13T10:27:03.219Z,31.10
2023-05-13T10:29:31.565Z,31.30
2023-05-13T10:32:00.590Z,30.80
2023-05-13T10:34:29.415Z,29.70
2023-05-13T10:37:12.773Z,30.80
2023-05-13T10:40:05.703Z,30.80
2023-05-13T10:42:40.960Z,29.70
2023-05-13T10:45:09.533Z,29.00
2023-05-13T10:47:38.450Z,29.30
2023-05-13T10:50:08.136Z,29.50
2023-05-13T10:52:48.801Z,29.50
2023-05-13T10:55:19.248Z,29.70
2023-05-13T10:58:09.729Z,30.40
2023-05-13T11:00:39.024Z,29.40
2023-05-13T11:03:14.853Z,28.80
2023-05-13T11:05:44.894Z,31.50
2023-05-13T11:08:33.853Z,31.20
2023-05-13T11:11:01.693Z,33.50
2023-05-13T11:13:38.083Z,34.00
2023-05-13T11:16:08.524Z,34.90
2023-05-13T11:18:36.512Z,34.40
2023-05-13T11:21:05.795Z,35.80
2023-05-13T11:23:51.445Z,38.80
2023-05-13T11:26:21.447Z,37.30
2023-05-13T11:28:55.574Z,40.00
2023-05-13T11:31:23.816Z,40.00
2023-05-13T11:34:07.993Z,40.60
2023-05-13T11:36:37.055Z,43.80
2023-05-13T11:39:12.288Z,44.60
2023-05-13T11:41:42.239Z,42.90
2023-05-13T11:44:10.480Z,40.60
2023-05-13T11:46:38.468Z,42.10
2023-05-13T11:49:07.349Z,43.30
2023-05-13T11:51:35.767Z,43.10
2023-05-13T11:54:04.931Z,43.50
2023-05-13T11:56:34.306Z,43.80
2023-05-13T11:59:22.954Z,43.10
2023-05-13T12:02:01.037Z,42.80
2023-05-13T12:04:30.619Z,44.00
2023-05-13T12:06:58.684Z,44.30
2023-05-13T12:09:26.916Z,43.70
2023-05-13T12:11:56.420Z,47.20
2023-05-13T12:14:27.823Z,45.40
2023-05-13T12:16:57.320Z,42.60
2023-05-13T12:19:25.187Z,44.10
2023-05-13T12:21:53.057Z,43.30
2023-05-13T12:24:22.088Z,42.60
2023-05-13T12:26:50.336Z,45.60
2023-05-13T12:29:19.425Z,43.90
2023-05-13T12:32:06.086Z,42.40
2023-05-13T12:34:35.661Z,44.50
2023-05-13T12:37:13.781Z,43.30
2023-05-13T12:39:42.653Z,44.00
2023-05-13T12:42:18.332Z,44.00
2023-05-13T12:44:47.960Z,46.50
2023-05-13T12:47:19.929Z,44.80
2023-05-13T12:49:54.288Z,46.40
2023-05-13T12:52:22.433Z,45.80
2023-05-13T12:54:50.450Z,45.10
2023-05-13T12:57:18.894Z,45.40
2023-05-13T12:59:48.179Z,44.90
2023-05-13T13:02:16.126Z,45.60
2023-05-13T13:04:43.905Z,47.30
2023-05-13T13:07:14.494Z,46.90
2023-05-13T13:09:42.376Z,46.90
2023-05-13T13:12:10.114Z,46.60
2023-05-13T13:14:37.926Z,45.60
2023-05-13T13:17:07.493Z,46.60
2023-05-13T13:19:35.436Z,47.60
2023-05-13T13:22:03.355Z,46.80
2023-05-13T13:24:31.564Z,47.80
2023-05-13T13:26:59.476Z,46.70
2023-05-13T13:29:27.257Z,48.80
2023-05-13T13:31:55.097Z,47.40
2023-05-13T13:34:24.257Z,47.40
2023-05-13T13:36:52.166Z,48.30
2023-05-13T13:46:53.258Z,48.10
2023-05-13T13:49:23.924Z,49.50
2023-05-13T13:51:53.766Z,46.80
2023-05-13T13:54:21.774Z,47.20
2023-05-13T13:56:49.709Z,48.90
2023-05-13T13:59:19.242Z,48.90
2023-05-13T14:01:47.502Z,49.90
2023-05-13T14:04:16.666Z,47.00
2023-05-13T14:06:47.197Z,46.60
2023-05-13T14:09:16.474Z,47.70
2023-05-13T14:11:44.250Z,45.80
2023-05-13T14:14:12.094Z,49.20
2023-05-13T14:16:39.990Z,47.70
2023-05-13T14:19:08.090Z,48.20
2023-05-13T14:21:36.288Z,50.20
2023-05-13T14:24:04.300Z,48.90
2023-05-13T14:26:33.475Z,48.60
2023-05-13T14:29:01.333Z,51.00
2023-05-13T14:31:29.855Z,50.70
2023-05-13T14:33:58.379Z,51.30
2023-05-13T14:36:26.769Z,50.80
2023-05-13T14:38:54.722Z,48.70
2023-05-13T14:41:23.188Z,48.00
2023-05-13T14:43:52.718Z,50.20
2023-05-13T14:46:20.564Z,49.60
2023-05-13T14:48:48.362Z,48.10
2023-05-13T14:51:16.217Z,50.30
2023-05-13T14:53:44.298Z,48.60
2023-05-13T14:56:12.490Z,50.70
2023-05-13T14:58:40.501Z,50.20
2023-05-13T15:01:09.742Z,49.20
2023-05-13T15:03:38.072Z,51.50
2023-05-13T15:06:06.636Z,52.30
2023-05-13T15:08:34.454Z,51.10
2023-05-13T15:11:02.465Z,52.90
2023-05-13T15:13:35.239Z,51.40
2023-05-13T15:16:03.543Z,50.00
2023-05-13T15:18:32.927Z,52.20
2023-05-13T15:21:00.712Z,51.80
2023-05-13T15:23:28.761Z,50.60
2023-05-13T15:25:56.585Z,50.60
2023-05-13T15:28:24.400Z,52.00
2023-05-13T15:30:52.356Z,53.50
2023-05-13T15:33:20.137Z,57.60
2023-05-13T15:35:49.263Z,59.50
2023-05-13T15:38:17.061Z,60.00
2023-05-13T15:40:44.885Z,65.60
2023-05-13T15:43:12.762Z,70.50
2023-05-13T15:45:40.792Z,71.50
2023-05-13T15:48:09.170Z,68.80
2023-05-13T15:50:38.315Z,67.60
2023-05-13T15:53:07.448Z,69.40
2023-05-13T15:55:37.045Z,68.90
2023-05-13T15:58:04.847Z,66.50
2023-05-13T16:00:32.740Z,65.50
2023-05-13T16:03:00.776Z,65.80
2023-05-13T16:05:28.924Z,64.60
2023-05-13T16:07:57.779Z,66.90
2023-05-13T16:10:27.159Z,67.50
2023-05-13T16:12:55.024Z,67.80
2023-05-13T16:15:22.887Z,66.50
2023-05-13T16:17:50.798Z,67.00
2023-05-13T16:20:18.707Z,67.60
2023-05-13T16:22:46.667Z,66.70
2023-05-13T16:25:20.281Z,66.90
2023-05-13T16:27:49.584Z,72.40
2023-05-13T16:30:17.626Z,72.50
2023-05-13T16:32:47.749Z,70.80
2023-05-13T16:35:15.681Z,72.80
2023-05-13T16:37:43.626Z,72.50
2023-05-13T16:40:14.513Z,73.10
2023-05-13T16:42:43.671Z,73.20
2023-05-13T16:45:13.391Z,72.00
2023-05-13T16:47:41.354Z,72.50
2023-05-13T16:50:10.096Z,73.70
2023-05-13T16:52:37.913Z,75.00
2023-05-13T16:55:06.545Z,75.50
2023-05-13T16:57:34.322Z,75.50
2023-05-13T17:00:02.145Z,76.10
2023-05-13T17:02:31.436Z,75.60
2023-05-13T17:04:59.597Z,76.90
2023-05-13T17:07:27.404Z,77.20
2023-05-13T17:09:55.281Z,79.60
2023-05-13T17:12:23.258Z,80.20
2023-05-13T17:14:51.905Z,81.10
2023-05-13T17:17:19.809Z,82.10
2023-05-13T17:19:49.238Z,80.20
2023-05-13T17:22:17.143Z,80.40
2023-05-13T17:24:45.057Z,78.80
2023-05-13T17:27:12.882Z,76.90
2023-05-13T17:29:40.740Z,77.50
2023-05-13T17:32:09.181Z,77.90
2023-05-13T17:34:37.063Z,80.00
2023-05-13T17:37:06.613Z,80.00
2023-05-13T17:39:34.446Z,82.00
2023-05-13T17:42:02.431Z,81.40
2023-05-13T17:44:30.424Z,80.80
2023-05-13T17:46:58.240Z,83.90
2023-05-13T17:49:26.118Z,83.70
2023-05-13T17:51:53.963Z,82.30
2023-05-13T17:54:23.344Z,84.00
2023-05-13T17:56:51.175Z,83.60
2023-05-13T17:59:19.034Z,86.70
2023-05-13T18:01:47.022Z,86.40
2023-05-13T18:04:14.916Z,87.20
2023-05-13T18:06:42.820Z,89.00
2023-05-13T18:09:11.998Z,88.20
2023-05-13T18:11:41.379Z,87.40
2023-05-13T18:14:11.521Z,84.70
2023-05-13T18:16:39.409Z,83.80
2023-05-13T18:19:07.668Z,85.60
2023-05-13T18:21:35.642Z,83.00
2023-05-13T18:24:03.496Z,82.40
2023-05-13T18:26:31.310Z,82.10
2023-05-13T18:29:03.895Z,82.90
2023-05-13T18:32:16.314Z,84.50
2023-05-13T18:39:15.681Z,89.10
2023-05-13T18:41:43.729Z,91.40
2023-05-13T18:44:14.207Z,91.00
2023-05-13T18:46:44.508Z,91.80
2023-05-13T18:53:30.138Z,93.80
2023-05-13T18:55:58.178Z,99.40
2023-05-13T18:58:26.810Z,99.90
2023-05-13T19:00:56.654Z,99.90
2023-05-13T19:03:24.886Z,99.90
2023-05-13T19:09:38.092Z,99.90
2023-05-13T19:12:06.393Z,99.90
2023-05-13T19:14:34.395Z,99.90
2023-05-13T19:17:13.895Z,99.90
2023-05-13T19:20:12.472Z,99.90
2023-05-13T19:22:40.514Z,99.90
2023-05-13T19:25:09.356Z,99.90
2023-05-13T19:27:38.206Z,99.90
2023-05-13T19:33:19.466Z,99.90
2023-05-13T19:38:59.356Z,99.90
2023-05-13T19:41:27.259Z,99.90
2023-05-13T19:43:55.140Z,99.90
2023-05-13T19:46:23.230Z,99.90
2023-05-13T19:48:52.617Z,99.90
2023-05-13T19:51:20.521Z,99.90
2023-05-13T19:53:48.359Z,99.90
2023-05-13T19:56:16.235Z,99.90
2023-05-13T19:58:44.173Z,99.90
2023-05-13T20:01:14.357Z,99.90
2023-05-13T20:03:42.322Z,99.90
2023-05-13T20:06:11.987Z,99.90
2023-05-13T20:08:39.897Z,99.90
2023-05-13T20:11:07.693Z,99.90
2023-05-13T20:13:35.743Z,99.90
2023-05-13T20:16:10.349Z,99.90
2023-05-13T20:18:39.110Z,99.90
2023-05-13T20:21:07.494Z,99.90
2023-05-13T20:24:05.507Z,99.90
2023-05-13T20:26:35.778Z,99.90
2023-05-13T20:29:04.248Z,99.90
2023-05-13T20:31:32.123Z,99.90
2023-05-13T20:34:00.352Z,99.90
2023-05-13T20:36:28.201Z,99.90
2023-05-13T20:39:10.953Z,99.90
2023-05-13T20:41:47.608Z,99.90
2023-05-13T20:44:16.962Z,99.90
2023-05-13T20:46:45.060Z,99.90
2023-05-13T20:49:13.522Z,99.90
2023-05-13T20:51:42.135Z,99.90
2023-05-13T20:54:10.931Z,99.90
2023-05-13T20:56:40.535Z,99.90
2023-05-13T20:59:09.419Z,99.90
2023-05-13T21:01:37.337Z,99.90
2023-05-13T21:04:06.617Z,99.90
2023-05-13T21:06:36.845Z,99.90
2023-05-13T21:09:05.330Z,99.90
2023-05-13T21:11:33.077Z,99.90
2023-05-13T21:14:02.208Z,99.90
2023-05-13T21:16:31.322Z,99.90
2023-05-13T21:18:59.425Z,99.90
2023-05-13T21:21:27.348Z,99.90
2023-05-13T21:23:55.290Z,99.90
2023-05-13T21:26:23.081Z,99.90
2023-05-13T21:28:50.942Z,99.90
2023-05-13T21:31:20.100Z,99.90
2023-05-13T21:33:49.036Z,99.90
2023-05-13T21:36:17.042Z,99.90
2023-05-13T21:38:45.316Z,99.90
2023-05-13T21:41:13.383Z,99.90
2023-05-13T21:43:41.273Z,99.90
2023-05-13T21:46:09.698Z,99.90
2023-05-13T21:48:39.053Z,99.90
2023-05-13T21:51:07.054Z,99.90
2023-05-13T21:53:34.817Z,99.90
2023-05-13T21:56:03.095Z,99.90
2023-05-13T21:58:30.772Z,99.90
2023-05-13T22:00:59.997Z,99.90
2023-05-13T22:03:28.258Z,99.90
2023-05-13T22:05:57.358Z,99.90
2023-05-13T22:08:25.248Z,99.90
2023-05-13T22:10:53.099Z,99.90
2023-05-13T22:13:21.539Z,99.90
2023-05-13T22:15:49.366Z,99.90
2023-05-13T22:18:17.195Z,99.90
2023-05-13T22:20:45.007Z,99.90
2023-05-13T22:23:14.066Z,99.90
2023-05-13T22:25:41.780Z,99.90
2023-05-13T22:28:09.527Z,99.90
2023-05-13T22:30:37.380Z,99.90
2023-05-13T22:33:05.345Z,99.90
2023-05-13T22:35:36.368Z,99.90
2023-05-13T22:38:05.177Z,99.90
2023-05-13T22:40:34.398Z,99.90
2023-05-13T22:43:02.211Z,99.90
2023-05-13T22:45:29.961Z,99.90
2023-05-13T22:47:57.772Z,99.90
2023-05-13T22:50:25.700Z,99.90
2023-05-13T22:52:53.709Z,99.90
2023-05-13T22:55:22.095Z,99.90
2023-05-13T22:57:51.228Z,99.90
2023-05-13T23:00:19.082Z,99.90
2023-05-13T23:02:46.828Z,99.90
2023-05-13T23:05:14.844Z,99.90
2023-05-13T23:07:42.770Z,99.90
2023-05-13T23:10:11.375Z,99.90
2023-05-13T23:12:39.313Z,99.90
2023-05-13T23:15:11.664Z,99.90
2023-05-13T23:17:39.404Z,99.90
2023-05-13T23:20:08.611Z,99.90
2023-05-13T23:22:36.577Z,99.90
2023-05-13T23:25:04.859Z,99.90
2023-05-13T23:27:33.214Z,99.90
2023-05-13T23:30:00.960Z,99.90
2023-05-13T23:32:30.104Z,99.90
2023-05-13T23:34:57.999Z,99.90
2023-05-13T23:37:25.753Z,99.90
2023-05-13T23:39:53.613Z,99.90
2023-05-13T23:42:21.691Z,99.90
2023-05-13T23:44:49.588Z,99.90
2023-05-13T23:47:17.405Z,99.90
2023-05-13T23:49:46.474Z,99.90
2023-05-13T23:52:14.255Z,99.90
2023-05-13T23:54:42.052Z,99.90
2023-05-13T23:57:09.865Z,99.90
2023-05-13T23:59:37.565Z,99.90
